Time;durP1;ratioP1;P1;durP2;ratioP2;P2;SDS_P1;SDS_P2;PMS_P1;PMS_P2;Temp;Humidity;BMP_temperature;BMP_pressure;BME280_temperature;BME280_humidity;BME280_pressure;Samples;Min_cycle;Max_cycle;Signal;HPM_P1;HPM_P2
2023/06/05 00:00:07;;;;;;;10.02;9.73;;;16.80;99.90;;;;;;5041612;28;20219;-85
2023/06/05 00:02:36;;;;;;;10.30;10.00;;;16.80;99.90;;;;;;5041532;28;20239;-85
2023/06/05 00:05:08;;;;;;;10.30;10.00;;;16.70;99.90;;;;;;5041279;28;20295;-86
2023/06/05 00:07:44;;;;;;;10.10;9.80;;;16.70;99.90;;;;;;5041202;28;20251;-86
2023/06/05 00:10:15;;;;;;;10.30;10.00;;;16.50;99.90;;;;;;5076244;28;20207;-85
2023/06/05 00:12:44;;;;;;;10.43;10.13;;;16.50;99.90;;;;;;5078266;28;20249;-84
2023/06/05 00:15:14;;;;;;;10.25;9.95;;;16.50;99.90;;;;;;5066432;28;20227;-85
2023/06/05 00:17:42;;;;;;;10.35;10.05;;;16.40;99.90;;;;;;5061052;28;20242;-85
2023/06/05 00:20:12;;;;;;;10.00;9.70;;;16.40;99.90;;;;;;5061235;28;20222;-86
2023/06/05 00:22:44;;;;;;;10.10;9.80;;;16.40;99.90;;;;;;5063293;28;20281;-85
2023/06/05 00:25:13;;;;;;;10.35;10.05;;;16.30;99.90;;;;;;5079980;28;20222;-85
2023/06/05 00:27:41;;;;;;;10.38;10.07;;;16.20;99.90;;;;;;5079669;28;20214;-86
2023/06/05 00:30:10;;;;;;;10.10;9.80;;;16.20;99.90;;;;;;5079551;28;20229;-86
2023/06/05 00:32:39;;;;;;;10.00;9.70;;;16.20;99.90;;;;;;5072754;28;20227;-85
2023/06/05 00:35:09;;;;;;;10.00;9.70;;;16.10;99.90;;;;;;5062460;28;20227;-85
2023/06/05 00:37:38;;;;;;;10.10;9.80;;;16.10;99.90;;;;;;5060561;28;20234;-85
2023/06/05 00:40:07;;;;;;;10.18;9.88;;;16.00;99.90;;;;;;5060540;28;20224;-86
2023/06/05 00:42:45;;;;;;;9.88;9.57;;;16.00;99.90;;;;;;5061084;28;20242;-85
2023/06/05 00:45:15;;;;;;;10.20;9.90;;;15.90;99.90;;;;;;5064216;28;20270;-85
2023/06/05 00:47:44;;;;;;;9.98;9.68;;;15.80;99.90;;;;;;5063937;28;20227;-85
2023/06/05 00:50:14;;;;;;;10.02;9.73;;;15.80;99.90;;;;;;5063778;28;20219;-85
2023/06/05 00:52:43;;;;;;;10.02;9.73;;;15.70;99.90;;;;;;5064622;28;20219;-85
2023/06/05 00:55:13;;;;;;;10.00;9.70;;;15.60;99.90;;;;;;5070791;28;20265;-85
2023/06/05 00:57:54;;;;;;;10.10;9.80;;;15.50;99.90;;;;;;5070416;28;20238;-86
2023/06/05 01:00:23;;;;;;;10.35;10.05;;;15.50;99.90;;;;;;5069815;28;20226;-85
2023/06/05 01:02:53;;;;;;;10.10;9.80;;;15.40;99.90;;;;;;5049998;28;20235;-85
2023/06/05 01:05:21;;;;;;;10.25;9.95;;;15.40;99.90;;;;;;5059636;28;20295;-85
2023/06/05 01:07:49;;;;;;;10.30;10.00;;;15.30;99.90;;;;;;5065151;28;20269;-86
2023/06/05 01:10:19;;;;;;;10.00;9.70;;;15.20;99.90;;;;;;5069305;28;20217;-86
2023/06/05 01:12:59;;;;;;;9.95;9.65;;;15.20;99.90;;;;;;5069954;28;20226;-85
2023/06/05 01:15:36;;;;;;;9.90;9.60;;;15.20;99.90;;;;;;5069328;28;20226;-86
2023/06/05 01:18:04;;;;;;;9.85;9.55;;;15.10;99.90;;;;;;5063626;28;20317;-85
2023/06/05 01:20:35;;;;;;;10.10;9.80;;;15.10;99.90;;;;;;5063964;28;20230;-86
2023/06/05 01:23:06;;;;;;;10.00;9.70;;;15.10;99.90;;;;;;5064034;28;20231;-86
2023/06/05 01:25:34;;;;;;;9.93;9.63;;;15.10;99.90;;;;;;5063871;28;20257;-85
2023/06/05 01:28:11;;;;;;;9.77;9.48;;;15.10;99.90;;;;;;5063929;28;20231;-85
2023/06/05 01:30:52;;;;;;;9.90;9.60;;;15.10;99.90;;;;;;5065382;28;20227;-85
2023/06/05 01:33:28;;;;;;;9.80;9.50;;;15.20;99.90;;;;;;5070315;28;20248;-85
2023/06/05 01:36:04;;;;;;;9.82;9.52;;;15.10;99.90;;;;;;5077249;28;20235;-85
2023/06/05 01:38:44;;;;;;;9.77;9.48;;;15.20;99.90;;;;;;5079482;28;20223;-85
2023/06/05 01:41:13;;;;;;;10.05;9.75;;;15.10;99.90;;;;;;5065064;28;20228;-86
2023/06/05 01:43:42;;;;;;;9.70;9.40;;;15.10;99.90;;;;;;5064047;28;20231;-85
2023/06/05 01:46:12;;;;;;;9.90;9.60;;;15.10;99.90;;;;;;5063632;28;20301;-86
2023/06/05 01:48:42;;;;;;;10.10;9.80;;;15.00;99.90;;;;;;5063811;28;20238;-85
2023/06/05 01:51:11;;;;;;;9.90;9.60;;;14.90;99.90;;;;;;5063516;28;20326;-85
2023/06/05 01:53:50;;;;;;;10.15;9.85;;;14.90;99.90;;;;;;5063850;28;20250;-85
2023/06/05 01:56:20;;;;;;;9.95;9.65;;;14.90;99.90;;;;;;5062546;28;20230;-86
2023/06/05 01:58:48;;;;;;;10.20;9.90;;;14.80;99.90;;;;;;5063031;28;20287;-85
2023/06/05 02:01:22;;;;;;;10.10;9.80;;;14.70;99.90;;;;;;5063260;28;20262;-86
2023/06/05 02:03:50;;;;;;;9.98;9.68;;;14.70;99.90;;;;;;5063442;28;20230;-86
2023/06/05 02:06:18;;;;;;;9.93;9.63;;;14.70;99.90;;;;;;5063840;28;20242;-85
2023/06/05 02:08:48;;;;;;;10.07;9.77;;;14.70;99.90;;;;;;5062731;28;20234;-86
2023/06/05 02:11:17;;;;;;;10.05;9.75;;;14.70;99.90;;;;;;5063291;28;20239;-86
2023/06/05 02:13:49;;;;;;;10.00;9.70;;;14.60;99.90;;;;;;5063607;28;20292;-86
2023/06/05 02:16:17;;;;;;;10.20;9.90;;;14.50;99.90;;;;;;5064055;28;20231;-86
2023/06/05 02:18:48;;;;;;;9.90;9.60;;;14.50;99.90;;;;;;5063573;28;20252;-86
2023/06/05 02:21:15;;;;;;;10.10;9.80;;;14.40;99.90;;;;;;5063798;28;20215;-86
2023/06/05 02:23:45;;;;;;;9.90;9.60;;;14.50;99.90;;;;;;5063499;28;20262;-86
2023/06/05 02:26:18;;;;;;;10.00;9.70;;;14.40;99.90;;;;;;5075510;28;20242;-85
2023/06/05 02:28:45;;;;;;;9.80;9.50;;;14.40;99.90;;;;;;5080143;28;20287;-84
2023/06/05 02:31:16;;;;;;;9.82;9.52;;;14.40;99.90;;;;;;5079933;28;20221;-84
2023/06/05 02:33:44;;;;;;;9.80;9.50;;;14.40;99.90;;;;;;5080553;28;20327;-85
2023/06/05 02:36:15;;;;;;;10.05;9.75;;;14.30;99.90;;;;;;5068249;28;20241;-85
2023/06/05 02:38:43;;;;;;;10.00;9.70;;;14.20;99.90;;;;;;5063359;28;20239;-86
2023/06/05 02:41:10;;;;;;;9.70;9.40;;;14.00;99.90;;;;;;5062767;28;20321;-85
2023/06/05 02:43:48;;;;;;;9.80;9.50;;;14.00;99.90;;;;;;5062204;28;20231;-86
2023/06/05 02:46:18;;;;;;;10.30;10.00;;;14.00;99.90;;;;;;5062660;28;20326;-86
2023/06/05 02:48:47;;;;;;;10.20;9.90;;;14.00;99.90;;;;;;5062291;28;20242;-85
2023/06/05 02:51:17;;;;;;;10.70;10.40;;;14.00;99.90;;;;;;5061944;28;20230;-86
2023/06/05 02:53:46;;;;;;;10.50;10.20;;;14.00;99.90;;;;;;5062632;28;20234;-85
2023/06/05 02:56:16;;;;;;;10.60;10.30;;;14.00;99.90;;;;;;5062236;28;20327;-86
2023/06/05 02:58:56;;;;;;;10.60;10.30;;;13.90;99.90;;;;;;5061520;28;20238;-86
2023/06/05 03:01:25;;;;;;;10.40;10.10;;;13.80;99.90;;;;;;5075218;28;20237;-85
2023/06/05 03:03:53;;;;;;;10.40;10.10;;;13.80;99.90;;;;;;5079509;28;20250;-85
2023/06/05 03:06:27;;;;;;;10.10;9.80;;;13.80;99.90;;;;;;5072249;28;20238;-83
2023/06/05 03:11:40;;;;;;;10.40;10.10;;;13.60;99.90;;;;;;5080976;28;20205;-84
2023/06/05 03:14:11;;;;;;;10.23;9.93;;;13.60;99.90;;;;;;5080301;28;20218;-85
2023/06/05 03:16:41;;;;;;;10.20;9.90;;;13.50;99.90;;;;;;5064368;28;20239;-86
2023/06/05 03:19:10;;;;;;;10.30;10.00;;;13.50;99.90;;;;;;5061672;28;20227;-86
2023/06/05 03:21:39;;;;;;;10.30;10.00;;;13.40;99.90;;;;;;5062054;28;20254;-85
2023/06/05 03:24:16;;;;;;;10.10;9.80;;;13.40;99.90;;;;;;5062640;28;20235;-86
2023/06/05 03:26:44;;;;;;;10.20;9.90;;;13.50;99.90;;;;;;5062775;28;20229;-85
2023/06/05 03:29:17;;;;;;;10.00;9.70;;;13.40;99.90;;;;;;5061487;28;20274;-86
2023/06/05 03:31:44;;;;;;;9.90;9.60;;;13.50;99.90;;;;;;5062047;28;20285;-85
2023/06/05 03:34:13;;;;;;;10.07;9.77;;;13.50;99.90;;;;;;5061639;28;20230;-86
2023/06/05 03:36:42;;;;;;;9.80;9.50;;;13.50;99.90;;;;;;5061422;28;20238;-86
2023/06/05 03:39:11;;;;;;;9.87;9.57;;;13.50;99.90;;;;;;5061453;28;20222;-86
2023/06/05 03:41:41;;;;;;;9.90;9.60;;;13.50;99.90;;;;;;5061887;28;20238;-86
2023/06/05 03:44:10;;;;;;;10.03;9.73;;;13.50;99.90;;;;;;5062030;28;20243;-86
2023/06/05 03:46:51;;;;;;;9.90;9.60;;;13.50;99.90;;;;;;5061701;28;20317;-86
2023/06/05 03:49:20;;;;;;;9.90;9.60;;;13.40;99.90;;;;;;5061480;28;20265;-85
2023/06/05 03:51:48;;;;;;;10.00;9.70;;;13.40;99.90;;;;;;5061121;28;20238;-85
2023/06/05 03:54:17;;;;;;;10.10;9.80;;;13.40;99.90;;;;;;5070603;28;20234;-84
2023/06/05 03:56:49;;;;;;;10.30;10.00;;;13.40;99.90;;;;;;5079368;28;20222;-85
2023/06/05 03:59:25;;;;;;;10.37;10.07;;;13.30;99.90;;;;;;5065449;28;20234;-86
2023/06/05 04:04:42;;;;;;;10.20;9.90;;;13.30;99.90;;;;;;5061109;28;20262;-86
2023/06/05 04:07:10;;;;;;;10.20;9.90;;;13.20;99.90;;;;;;5061221;28;20229;-86
2023/06/05 04:09:39;;;;;;;10.20;9.90;;;13.20;99.90;;;;;;5060638;28;20242;-86
2023/06/05 04:12:10;;;;;;;10.23;9.93;;;13.20;99.90;;;;;;5060628;28;20261;-85
2023/06/05 04:14:42;;;;;;;10.20;9.90;;;13.10;99.90;;;;;;5044747;28;20226;-86
2023/06/05 04:17:13;;;;;;;10.43;10.13;;;13.10;99.90;;;;;;5061522;28;20271;-84
2023/06/05 04:19:41;;;;;;;10.60;10.30;;;13.10;99.90;;;;;;5064980;28;20250;-85
2023/06/05 04:22:09;;;;;;;10.23;9.93;;;13.00;99.90;;;;;;5065256;28;20321;-86
2023/06/05 04:24:39;;;;;;;10.20;9.90;;;13.00;99.90;;;;;;5065032;28;20237;-86
2023/06/05 04:27:08;;;;;;;10.60;10.30;;;13.00;99.90;;;;;;5070313;28;20231;-86
2023/06/05 04:29:37;;;;;;;10.60;10.30;;;13.10;99.90;;;;;;5074415;28;20237;-86
2023/06/05 04:32:07;;;;;;;10.37;10.07;;;13.10;99.90;;;;;;5068371;28;20247;-82
2023/06/05 04:34:45;;;;;;;10.47;10.17;;;13.10;99.90;;;;;;5064200;28;20223;-83
2023/06/05 04:37:14;;;;;;;10.40;10.10;;;13.20;99.90;;;;;;5062541;28;20242;-82
2023/06/05 04:40:07;;;;;;;9.90;9.60;;;13.20;99.90;;;;;;5097146;22;20305;-83
2023/06/05 04:43:09;;;;;;;10.00;9.70;;;13.30;99.90;;;;;;5088673;28;20222;-83
2023/06/05 04:46:34;;;;;;;9.50;9.20;;;13.40;99.90;;;;;;5002216;28;20231;-83
2023/06/05 04:49:18;;;;;;;10.10;9.80;;;13.50;99.90;;;;;;5032628;28;20238;-83
2023/06/05 04:53:01;;;;;;;9.90;9.60;;;13.60;99.90;;;;;;5067066;28;20238;-83
2023/06/05 04:55:48;;;;;;;10.00;9.70;;;13.70;99.90;;;;;;5060334;28;20270;-83
2023/06/05 05:05:22;;;;;;;9.77;9.48;;;14.20;99.90;;;;;;5060658;28;20230;-85
2023/06/05 05:08:01;;;;;;;10.20;9.90;;;14.40;99.90;;;;;;5062913;28;20219;-83
2023/06/05 05:11:09;;;;;;;9.95;9.65;;;14.60;99.90;;;;;;5062316;28;20242;-83
2023/06/05 05:13:53;;;;;;;10.30;10.00;;;14.80;99.90;;;;;;5063147;28;20227;-83
2023/06/05 05:17:01;;;;;;;10.00;9.70;;;15.00;99.90;;;;;;5063155;28;20238;-83
2023/06/05 05:19:50;;;;;;;10.45;10.15;;;15.20;99.90;;;;;;5062673;28;20252;-84
2023/06/05 05:25:45;;;;;;;10.27;9.98;;;15.60;99.90;;;;;;5061842;28;20222;-83
2023/06/05 05:28:28;;;;;;;10.30;10.00;;;15.80;99.90;;;;;;5063085;28;20220;-83
2023/06/05 05:31:06;;;;;;;10.00;9.70;;;15.90;99.90;;;;;;5064948;28;20317;-83
2023/06/05 05:33:50;;;;;;;10.05;9.75;;;16.00;99.90;;;;;;5066453;28;20227;-83
2023/06/05 05:36:57;;;;;;;9.90;9.60;;;16.10;99.90;;;;;;5066397;28;20237;-83
2023/06/05 05:40:13;;;;;;;9.75;9.45;;;16.20;99.90;;;;;;5082587;28;20244;-84
2023/06/05 05:43:31;;;;;;;9.68;9.38;;;16.20;99.90;;;;;;5066322;28;20223;-83
2023/06/05 05:53:00;;;;;;;10.20;9.90;;;16.50;99.90;;;;;;5069323;28;20230;-83
2023/06/05 05:56:18;;;;;;;10.18;9.88;;;16.60;99.90;;;;;;5067286;28;20227;-82
2023/06/05 06:02:36;;;;;;;10.15;9.85;;;17.00;99.90;;;;;;5065248;28;20226;-83
2023/06/05 06:05:25;;;;;;;10.10;9.80;;;17.10;99.90;;;;;;5065531;28;20222;-82
2023/06/05 06:08:30;;;;;;;10.05;9.75;;;17.30;99.90;;;;;;5065898;28;20214;-83
2023/06/05 06:14:11;;;;;;;10.00;9.70;;;17.70;99.90;;;;;;5064639;28;20217;-83
2023/06/05 06:16:58;;;;;;;9.90;9.60;;;17.80;99.90;;;;;;5065715;28;20237;-83
2023/06/05 06:22:55;;;;;;;9.55;9.25;;;18.00;99.90;;;;;;5058998;28;20226;-87
2023/06/05 06:25:43;;;;;;;;;;;;;;;;;;;;;
2023/06/05 06:28:57;;;;;;;;;;;;;;;;;;;;;
2023/06/05 06:31:25;;;;;;;9.98;9.68;;;18.10;99.90;;;;;;5044920;28;20261;-87
2023/06/05 06:42:48;;;;;;;10.07;9.77;;;18.60;99.90;;;;;;5028569;28;20369;-88
2023/06/05 06:52:45;;;;;;;;;;;;;;;;;;;;;
2023/06/05 07:30:28;;;;;;;10.27;9.98;;;20.40;99.90;;;;;;5061682;28;20238;-87
2023/06/05 07:33:16;;;;;;;9.98;9.68;;;20.50;99.90;;;;;;5063887;28;20226;-88
2023/06/05 07:36:05;;;;;;;10.30;10.00;;;20.60;99.90;;;;;;5074327;28;20227;-90
2023/06/05 07:38:41;;;;;;;10.20;9.90;;;20.70;99.90;;;;;;5073221;28;20239;-88
2023/06/05 07:41:20;;;;;;;10.05;9.75;;;20.80;99.90;;;;;;5069946;28;20296;-87
2023/06/05 07:43:55;;;;;;;10.15;9.85;;;20.90;99.90;;;;;;5069296;28;20258;-86
2023/06/05 07:46:44;;;;;;;10.15;9.85;;;21.00;99.90;;;;;;5069265;28;20309;-87
2023/06/05 07:52:07;;;;;;;10.20;9.90;;;21.20;99.90;;;;;;5061880;28;21104;-87
2023/06/05 08:03:48;;;;;;;10.18;9.88;;;21.80;99.90;;;;;;5095713;27;20221;-89
2023/06/05 08:06:32;;;;;;;9.90;9.60;;;22.00;99.90;;;;;;5095707;28;20280;-89
2023/06/05 08:09:09;;;;;;;9.80;9.50;;;22.00;99.90;;;;;;5089967;28;20235;-88
2023/06/05 08:14:35;;;;;;;9.48;9.18;;;22.30;99.90;;;;;;5077200;28;20318;-87
2023/06/05 08:17:08;;;;;;;9.30;9.00;;;22.40;99.90;;;;;;5077538;28;20215;-86
2023/06/05 08:19:36;;;;;;;9.63;9.32;;;22.50;99.90;;;;;;5079556;28;20306;-86
2023/06/05 08:22:05;;;;;;;9.60;9.30;;;22.60;99.90;;;;;;5079837;28;20214;-85
2023/06/05 08:24:33;;;;;;;9.70;9.40;;;22.60;99.90;;;;;;5080497;28;20218;-85
2023/06/05 08:27:01;;;;;;;9.73;9.43;;;22.70;99.90;;;;;;5080731;28;20211;-86
2023/06/05 08:29:35;;;;;;;9.95;9.65;;;22.80;99.90;;;;;;5080051;28;20215;-84
2023/06/05 08:32:10;;;;;;;9.77;9.48;;;22.90;99.90;;;;;;5079784;28;20241;-85
2023/06/05 08:34:40;;;;;;;9.60;9.30;;;23.00;99.90;;;;;;5080486;28;20241;-85
2023/06/05 08:37:11;;;;;;;9.50;9.20;;;23.00;99.90;;;;;;5079878;28;20215;-85
2023/06/05 08:39:38;;;;;;;9.50;9.20;;;23.20;99.90;;;;;;5079301;28;20219;-86
2023/06/05 08:42:07;;;;;;;9.90;9.60;;;23.30;99.90;;;;;;5079905;28;20234;-83
2023/06/05 08:44:37;;;;;;;9.57;9.27;;;23.40;99.90;;;;;;5073127;28;20231;-81
2023/06/05 08:47:15;;;;;;;9.60;9.30;;;23.50;99.90;;;;;;5071951;28;20233;-83
2023/06/05 08:49:44;;;;;;;10.10;9.80;;;23.60;99.90;;;;;;5072149;28;20230;-83
2023/06/05 08:52:14;;;;;;;10.00;9.70;;;23.70;99.90;;;;;;5079642;28;20234;-82
2023/06/05 08:54:43;;;;;;;9.90;9.60;;;23.80;99.90;;;;;;5078884;28;20218;-80
2023/06/05 08:57:12;;;;;;;10.00;9.70;;;24.00;99.90;;;;;;5075266;28;20265;-81
2023/06/05 08:59:42;;;;;;;10.13;9.82;;;24.20;99.90;;;;;;5069340;28;20235;-83
2023/06/05 09:02:14;;;;;;;10.50;10.20;;;24.30;99.90;;;;;;5067623;28;20270;-83
2023/06/05 09:04:41;;;;;;;10.38;10.07;;;24.40;99.90;;;;;;5071934;28;20223;-84
2023/06/05 09:07:10;;;;;;;10.25;9.95;;;24.50;99.90;;;;;;5068912;28;20261;-84
2023/06/05 09:09:39;;;;;;;10.63;10.32;;;24.50;99.90;;;;;;5068387;28;20242;-83
2023/06/05 09:12:09;;;;;;;10.40;10.10;;;24.70;99.90;;;;;;5068889;28;20250;-82
2023/06/05 09:14:38;;;;;;;10.30;10.00;;;24.80;99.90;;;;;;5069749;28;20289;-82
2023/06/05 09:17:08;;;;;;;10.45;10.15;;;24.80;99.90;;;;;;5072376;28;20234;-84
2023/06/05 09:19:47;;;;;;;10.23;9.93;;;24.90;99.90;;;;;;5070428;28;20249;-83
2023/06/05 09:22:16;;;;;;;10.05;9.75;;;25.20;99.90;;;;;;5071474;28;20214;-83
2023/06/05 09:24:48;;;;;;;10.23;9.93;;;25.50;99.90;;;;;;5071039;28;20234;-83
2023/06/05 09:27:26;;;;;;;10.30;10.00;;;25.80;99.90;;;;;;5072794;28;20246;-83
2023/06/05 09:30:13;;;;;;;10.40;10.10;;;25.90;99.90;;;;;;5072164;28;20235;-83
2023/06/05 09:32:41;;;;;;;10.40;10.10;;;26.10;99.90;;;;;;5072627;28;20241;-84
2023/06/05 09:35:18;;;;;;;10.30;10.00;;;26.30;99.90;;;;;;5071352;28;20257;-84
2023/06/05 09:37:47;;;;;;;10.25;9.95;;;26.20;99.90;;;;;;5071023;28;20320;-83
2023/06/05 09:40:17;;;;;;;10.30;10.00;;;26.10;99.90;;;;;;5070293;28;20288;-83
2023/06/05 09:42:47;;;;;;;10.27;9.98;;;25.50;99.90;;;;;;5072897;28;20227;-83
2023/06/05 09:45:17;;;;;;;10.60;10.30;;;25.50;99.90;;;;;;5069630;28;20276;-87
2023/06/05 09:47:45;;;;;;;10.40;10.10;;;25.50;99.90;;;;;;5069261;28;20238;-84
2023/06/05 09:50:27;;;;;;;10.40;10.10;;;25.40;99.90;;;;;;5069589;28;20309;-85
2023/06/05 09:53:02;;;;;;;10.20;9.90;;;25.50;99.90;;;;;;5069459;28;20253;-84
2023/06/05 09:55:31;;;;;;;10.35;10.05;;;25.70;99.90;;;;;;5068387;28;20222;-84
2023/06/05 09:58:01;;;;;;;10.35;10.05;;;26.00;99.90;;;;;;5067707;28;20348;-86
2023/06/05 10:03:26;;;;;;;10.65;10.35;;;26.50;99.90;;;;;;5064851;28;20221;-85
2023/06/05 10:06:03;;;;;;;10.50;10.20;;;26.90;99.90;;;;;;5069146;28;20238;-84
2023/06/05 10:08:33;;;;;;;10.30;10.00;;;27.00;99.90;;;;;;5067732;28;20241;-84
2023/06/05 10:11:05;;;;;;;10.30;10.00;;;26.90;99.90;;;;;;5076310;28;20234;-84
2023/06/05 10:13:37;;;;;;;10.40;10.10;;;26.60;99.90;;;;;;5078866;28;20223;-84
2023/06/05 10:16:06;;;;;;;10.77;10.48;;;26.60;99.90;;;;;;5077673;28;20219;-86
2023/06/05 10:18:34;;;;;;;10.45;10.15;;;26.80;99.90;;;;;;5075189;28;20235;-86
2023/06/05 10:23:52;;;;;;;10.30;10.00;;;26.50;99.90;;;;;;5068112;28;20223;-86
2023/06/05 10:26:56;;;;;;;10.00;9.70;;;26.60;99.90;;;;;;5067547;28;20235;-86
2023/06/05 10:29:58;;;;;;;9.90;9.60;;;26.50;99.90;;;;;;5064637;28;20234;-86
2023/06/05 10:35:42;;;;;;;9.70;9.40;;;26.10;99.90;;;;;;5065281;28;20214;-85
2023/06/05 10:38:21;;;;;;;10.00;9.70;;;25.80;99.90;;;;;;5065960;28;20231;-87
2023/06/05 10:40:58;;;;;;;10.52;10.23;;;25.90;99.90;;;;;;5065839;28;20249;-85
2023/06/05 10:43:37;;;;;;;10.30;10.00;;;25.90;99.90;;;;;;5065581;28;20242;-85
2023/06/05 10:46:32;;;;;;;10.32;10.02;;;26.00;99.90;;;;;;5065637;28;20231;-86
2023/06/05 10:49:12;;;;;;;9.98;9.68;;;26.40;99.90;;;;;;5066154;28;20289;-84
2023/06/05 10:55:20;;;;;;;9.93;9.63;;;26.80;99.90;;;;;;5073114;28;20234;-83
2023/06/05 10:58:16;;;;;;;9.77;9.48;;;26.90;99.90;;;;;;5081921;28;20257;-84
2023/06/05 11:01:20;;;;;;;9.73;9.43;;;26.80;99.90;;;;;;5079412;28;20234;-81
2023/06/05 11:04:05;;;;;;;9.68;9.38;;;26.70;99.90;;;;;;5062545;28;20234;-80
2023/06/05 11:06:37;;;;;;;10.00;9.70;;;26.60;99.90;;;;;;5061310;28;20223;-81
2023/06/05 11:09:14;;;;;;;9.82;9.52;;;26.50;99.90;;;;;;5063641;28;20289;-82
2023/06/05 11:12:11;;;;;;;10.15;9.85;;;26.70;99.90;;;;;;5063645;28;20227;-84
2023/06/05 11:14:50;;;;;;;10.70;10.40;;;27.10;99.90;;;;;;5061562;28;20230;-82
2023/06/05 11:17:37;;;;;;;10.30;10.00;;;27.20;99.90;;;;;;5054593;28;20234;-81
2023/06/05 11:20:15;;;;;;;10.10;9.80;;;27.20;99.90;;;;;;5062466;28;20226;-82
2023/06/05 11:23:10;;;;;;;10.60;10.30;;;27.00;99.90;;;;;;5076887;28;20230;-81
2023/06/05 11:25:40;;;;;;;10.70;10.40;;;27.00;99.90;;;;;;5044833;28;20219;-79
2023/06/05 11:28:11;;;;;;;10.57;10.27;;;26.80;99.90;;;;;;5079001;28;20227;-80
2023/06/05 11:33:26;;;;;;;10.77;10.48;;;26.90;99.90;;;;;;5057166;28;20227;-82
2023/06/05 11:35:54;;;;;;;10.57;10.27;;;27.10;99.90;;;;;;5048486;28;20231;-82
2023/06/05 11:38:36;;;;;;;10.52;10.23;;;27.30;99.90;;;;;;5057044;28;20237;-81
2023/06/05 11:41:10;;;;;;;10.38;10.07;;;27.50;99.90;;;;;;5048359;28;20241;-81
2023/06/05 11:43:49;;;;;;;10.55;10.25;;;27.30;99.90;;;;;;5041743;28;20235;-81
2023/06/05 11:46:18;;;;;;;10.40;10.10;;;27.20;99.90;;;;;;5041353;28;20230;-80
2023/06/05 11:48:49;;;;;;;10.32;10.02;;;27.50;99.90;;;;;;5047504;28;20266;-81
2023/06/05 11:51:17;;;;;;;10.40;10.10;;;27.90;99.90;;;;;;5043591;28;20230;-81
2023/06/05 11:53:49;;;;;;;10.35;10.05;;;27.60;99.90;;;;;;5043629;28;20314;-81
2023/06/05 12:00:06;;;;;;;10.10;9.80;;;27.10;99.90;;;;;;5041743;28;20223;-85
2023/06/05 12:06:37;;;;;;;10.68;10.38;;;27.80;99.90;;;;;;5014628;28;20208;-83
2023/06/05 12:17:33;;;;;;;10.65;10.35;;;29.50;99.90;;;;;;4840414;29;20223;-85
2023/06/05 12:32:30;;;;;;;10.32;10.02;;;27.60;99.90;;;;;;4903946;28;20279;-83
2023/06/05 12:35:29;;;;;;;10.70;10.40;;;28.20;99.90;;;;;;4959665;28;20230;-85
2023/06/05 12:38:08;;;;;;;10.57;10.27;;;28.60;99.90;;;;;;5008275;28;20261;-82
2023/06/05 12:40:57;;;;;;;10.32;10.02;;;29.10;99.90;;;;;;5042964;28;20227;-83
2023/06/05 12:49:29;;;;;;;10.00;9.70;;;30.00;99.90;;;;;;5062525;28;20226;-85
2023/06/05 12:52:08;;;;;;;10.35;10.05;;;29.60;99.90;;;;;;5062567;28;20261;-84
2023/06/05 12:54:40;;;;;;;10.15;9.85;;;28.70;99.90;;;;;;5063765;28;20218;-86
2023/06/05 13:00:04;;;;;;;10.48;10.18;;;27.70;99.90;;;;;;5062625;28;20293;-86
2023/06/05 13:02:33;;;;;;;10.38;10.07;;;27.50;99.90;;;;;;5063841;28;20269;-86
2023/06/05 13:05:06;;;;;;;10.50;10.20;;;27.80;99.90;;;;;;5068572;28;20215;-85
2023/06/05 13:08:09;;;;;;;10.30;10.00;;;28.30;99.90;;;;;;5082050;28;20241;-83
2023/06/05 13:10:45;;;;;;;10.70;10.40;;;28.50;99.90;;;;;;5081110;28;20271;-85
2023/06/05 13:13:32;;;;;;;10.40;10.10;;;28.50;99.90;;;;;;5080893;28;20225;-86
2023/06/05 13:16:13;;;;;;;10.40;10.10;;;28.90;99.90;;;;;;5065575;28;20241;-85
2023/06/05 13:22:30;;;;;;;10.30;10.00;;;29.20;99.90;;;;;;5063676;28;20226;-85
2023/06/05 13:25:05;;;;;;;10.40;10.10;;;28.30;99.90;;;;;;5053586;28;20306;-86
2023/06/05 13:27:46;;;;;;;10.30;10.00;;;28.10;99.90;;;;;;5064022;28;20214;-86
2023/06/05 13:31:11;;;;;;;10.40;10.10;;;27.70;99.90;;;;;;5070673;28;20276;-85
2023/06/05 13:54:08;;;;;;;10.57;10.27;;;30.00;99.90;;;;;;5074225;28;20219;-82
2023/06/05 13:56:35;;;;;;;10.20;9.90;;;30.60;99.90;;;;;;5072794;28;20243;-85
2023/06/05 13:59:16;;;;;;;;;;;;;;;;;;;;;
2023/06/05 14:02:00;;;;;;;10.70;10.40;;;30.50;99.90;;;;;;5045155;28;20285;-83
2023/06/05 14:04:41;;;;;;;10.90;10.60;;;29.90;99.90;;;;;;5063467;28;20235;-84
2023/06/05 14:07:18;;;;;;;10.20;9.90;;;29.60;99.90;;;;;;5063570;28;20265;-84
2023/06/05 14:09:49;;;;;;;10.25;9.95;;;29.70;99.90;;;;;;5062943;28;20292;-82
2023/06/05 14:12:18;;;;;;;10.38;10.07;;;30.00;99.90;;;;;;5062516;28;20226;-83
2023/06/05 14:14:58;;;;;;;10.60;10.30;;;30.30;99.90;;;;;;5064661;28;20235;-84
2023/06/05 14:17:28;;;;;;;10.75;10.45;;;30.70;99.90;;;;;;5068188;28;20221;-84
2023/06/05 14:22:41;;;;;;;11.07;10.77;;;31.00;99.90;;;;;;5063731;28;20254;-82
2023/06/05 14:29:00;;;;;;;10.50;10.20;;;31.40;99.90;;;;;;5053961;28;20238;-85
2023/06/05 14:31:29;;;;;;;10.50;10.20;;;31.60;99.90;;;;;;5063103;28;20313;-83
2023/06/05 14:34:09;;;;;;;10.63;10.32;;;31.70;99.90;;;;;;5066231;28;20227;-84
2023/06/05 14:36:38;;;;;;;10.40;10.10;;;31.90;99.90;;;;;;5068338;28;20222;-83
2023/06/05 14:39:06;;;;;;;10.15;9.85;;;32.00;99.90;;;;;;5064452;28;20250;-80
2023/06/05 14:41:35;;;;;;;10.32;10.02;;;31.80;99.90;;;;;;5063922;28;20239;-80
2023/06/05 14:44:06;;;;;;;10.32;10.02;;;31.40;99.90;;;;;;5064398;28;20227;-82
2023/06/05 14:46:35;;;;;;;10.50;10.20;;;31.20;99.90;;;;;;5065025;28;20234;-82
2023/06/05 14:49:25;;;;;;;10.60;10.30;;;31.40;99.90;;;;;;5064086;28;20226;-83
2023/06/05 14:51:53;;;;;;;10.30;10.00;;;31.30;99.90;;;;;;5064199;28;20239;-83
2023/06/05 14:54:20;;;;;;;10.50;10.20;;;31.10;99.90;;;;;;5066971;28;20284;-82
2023/06/05 14:56:50;;;;;;;10.40;10.10;;;30.60;99.90;;;;;;5067133;28;20230;-82
2023/06/05 14:59:19;;;;;;;10.50;10.20;;;30.60;99.90;;;;;;5066582;28;20234;-82
2023/06/05 15:01:49;;;;;;;10.30;10.00;;;30.80;99.90;;;;;;5064387;28;20234;-83
2023/06/05 15:04:19;;;;;;;10.57;10.27;;;31.20;99.90;;;;;;5064198;28;20226;-82
2023/06/05 15:06:51;;;;;;;10.10;9.80;;;31.50;99.90;;;;;;5062522;28;20231;-84
2023/06/05 15:09:29;;;;;;;9.95;9.65;;;31.40;99.90;;;;;;5061514;28;20266;-84
2023/06/05 15:11:57;;;;;;;9.70;9.40;;;30.90;99.90;;;;;;5060634;28;20241;-85
2023/06/05 15:17:12;;;;;;;10.10;9.80;;;29.50;99.90;;;;;;5059337;28;20219;-84
2023/06/05 15:19:44;;;;;;;10.10;9.80;;;29.20;99.90;;;;;;5044835;28;20227;-85
2023/06/05 15:22:21;;;;;;;10.20;9.90;;;29.00;99.90;;;;;;5061617;28;20234;-84
2023/06/05 15:25:02;;;;;;;10.48;10.18;;;28.60;99.90;;;;;;5061409;28;20256;-84
2023/06/05 15:27:37;;;;;;;10.40;10.10;;;28.30;99.90;;;;;;5061761;28;20231;-85
2023/06/05 15:30:34;;;;;;;;;;;;;;;;;;;;;
2023/06/05 15:33:45;;;;;;;10.70;10.40;;;28.00;99.90;;;;;;5041338;28;20251;-85
2023/06/05 15:36:14;;;;;;;10.45;10.15;;;27.80;99.90;;;;;;5057922;28;20309;-82
2023/06/05 15:41:49;;;;;;;10.38;10.07;;;27.70;99.90;;;;;;5064239;28;20230;-81
2023/06/05 15:44:18;;;;;;;10.00;9.70;;;27.90;99.90;;;;;;5069707;28;20235;-82
2023/06/05 15:46:47;;;;;;;9.95;9.65;;;27.80;99.90;;;;;;5077204;28;20253;-81
2023/06/05 15:49:17;;;;;;;9.90;9.60;;;27.40;99.90;;;;;;5065308;28;20314;-79
2023/06/05 15:51:47;;;;;;;10.10;9.80;;;26.80;99.90;;;;;;5064173;28;20317;-83
2023/06/05 15:54:17;;;;;;;10.10;9.80;;;26.20;99.90;;;;;;5062840;28;20226;-80
2023/06/05 15:57:02;;;;;;;10.20;9.90;;;25.70;99.90;;;;;;5062009;28;20269;-81
2023/06/05 15:59:31;;;;;;;10.40;10.10;;;25.30;99.90;;;;;;5061748;28;20277;-81
2023/06/05 16:03:12;;;;;;;10.25;9.95;;;25.00;99.90;;;;;;5063231;28;20261;-88
2023/06/05 16:08:32;;;;;;;10.20;9.90;;;24.20;99.90;;;;;;5035883;28;20223;-81
2023/06/05 16:11:07;;;;;;;10.00;9.70;;;24.00;99.90;;;;;;5062167;28;20234;-80
2023/06/05 16:13:39;;;;;;;10.07;9.77;;;23.80;99.90;;;;;;5062335;28;20234;-82
2023/06/05 16:16:07;;;;;;;9.93;9.63;;;23.60;99.90;;;;;;5056690;28;20238;-84
2023/06/05 16:18:36;;;;;;;10.00;9.70;;;23.60;99.90;;;;;;5049602;28;20266;-81
2023/06/05 16:21:06;;;;;;;9.82;9.52;;;23.20;99.90;;;;;;5072405;28;20235;-79
2023/06/05 16:23:35;;;;;;;9.50;9.20;;;22.80;99.90;;;;;;5071284;28;20238;-79
2023/06/05 16:26:23;;;;;;;9.82;9.52;;;22.50;99.90;;;;;;5077333;28;20230;-81
2023/06/05 16:28:53;;;;;;;9.93;9.63;;;22.20;99.90;;;;;;5061873;28;20228;-80
2023/06/05 16:31:22;;;;;;;10.05;9.75;;;22.00;99.90;;;;;;5061130;28;20258;-82
2023/06/05 16:33:51;;;;;;;9.65;9.35;;;21.80;99.90;;;;;;5063778;28;20314;-81